< < Back
Terminal Aerodrome Forecast


Current Version              Previous Versions:   1  2  3  4  5  6  7  8  9  

Terminal Aerodrome Forecast

324
FTUS44 KMRX 011726
TAFTYS
TAF
KTYS 011726Z 0118/0218 VRB04KT P6SM FEW040 BKN250
     FM020600 04003KT 6SM BR SCT250
      TEMPO 0208/0212 4SM BR
     FM021500 24003KT P6SM SCT250=



Latest METAR

738
SAUS80 KWBC 012200 RRF
MTRTYS
METAR KTYS 012153Z 31004KT 10SM FEW060 SCT250 28/11 A2998 RMK AO2 SLP142
T02780111


USA.gov is the U.S. government's official web portal to all federal, state and local government web resources and services.